sensor_id;sensor_type;location;lat;lon;timestamp;P1;durP1;ratioP1;P2;durP2;ratioP2
62848;SDS011;48941;49.516;8.286;2023-05-10T00:01:53;1.27;;;1.17;;
62848;SDS011;48941;49.516;8.286;2023-05-10T00:04:22;1.23;;;1.13;;
62848;SDS011;48941;49.516;8.286;2023-05-10T00:06:53;3.15;;;1.20;;
62848;SDS011;48941;49.516;8.286;2023-05-10T00:09:21;1.33;;;1.27;;
62848;SDS011;48941;49.516;8.286;2023-05-10T00:11:49;1.30;;;1.20;;
62848;SDS011;48941;49.516;8.286;2023-05-10T00:14:16;1.30;;;1.30;;
62848;SDS011;48941;49.516;8.286;2023-05-10T00:16:44;2.10;;;1.40;;
62848;SDS011;48941;49.516;8.286;2023-05-10T00:19:12;1.50;;;1.40;;
62848;SDS011;48941;49.516;8.286;2023-05-10T00:21:42;4.50;;;1.40;;
62848;SDS011;48941;49.516;8.286;2023-05-10T00:24:10;1.60;;;1.40;;
62848;SDS011;48941;49.516;8.286;2023-05-10T00:26:37;2.10;;;1.38;;
62848;SDS011;48941;49.516;8.286;2023-05-10T00:29:05;1.10;;;1.10;;
62848;SDS011;48941;49.516;8.286;2023-05-10T00:31:33;5.28;;;1.65;;
62848;SDS011;48941;49.516;8.286;2023-05-10T00:34:01;1.40;;;1.30;;
62848;SDS011;48941;49.516;8.286;2023-05-10T00:36:29;1.38;;;1.27;;
62848;SDS011;48941;49.516;8.286;2023-05-10T00:38:58;1.80;;;1.70;;
62848;SDS011;48941;49.516;8.286;2023-05-10T00:41:26;3.95;;;2.30;;
62848;SDS011;48941;49.516;8.286;2023-05-10T00:43:54;2.50;;;2.30;;
62848;SDS011;48941;49.516;8.286;2023-05-10T00:46:22;2.90;;;2.70;;
62848;SDS011;48941;49.516;8.286;2023-05-10T00:48:50;2.13;;;2.03;;
62848;SDS011;48941;49.516;8.286;2023-05-10T00:51:18;3.40;;;2.10;;
62848;SDS011;48941;49.516;8.286;2023-05-10T00:53:46;1.90;;;1.80;;
62848;SDS011;48941;49.516;8.286;2023-05-10T00:56:18;2.10;;;1.95;;
62848;SDS011;48941;49.516;8.286;2023-05-10T00:58:46;4.88;;;1.70;;
62848;SDS011;48941;49.516;8.286;2023-05-10T01:01:14;1.80;;;1.30;;
62848;SDS011;48941;49.516;8.286;2023-05-10T01:03:42;3.10;;;1.50;;
62848;SDS011;48941;49.516;8.286;2023-05-10T01:06:10;1.90;;;1.35;;
62848;SDS011;48941;49.516;8.286;2023-05-10T01:08:38;1.23;;;1.15;;
62848;SDS011;48941;49.516;8.286;2023-05-10T01:11:06;1.23;;;1.23;;
62848;SDS011;48941;49.516;8.286;2023-05-10T01:13:36;3.67;;;1.40;;
62848;SDS011;48941;49.516;8.286;2023-05-10T01:16:06;2.33;;;1.40;;
62848;SDS011;48941;49.516;8.286;2023-05-10T01:18:35;1.27;;;1.27;;
62848;SDS011;48941;49.516;8.286;2023-05-10T01:21:08;2.67;;;1.40;;
62848;SDS011;48941;49.516;8.286;2023-05-10T01:26:50;1.67;;;1.23;;
62848;SDS011;48941;49.516;8.286;2023-05-10T01:29:39;1.40;;;1.30;;
62848;SDS011;48941;49.516;8.286;2023-05-10T01:32:43;3.38;;;1.40;;
62848;SDS011;48941;49.516;8.286;2023-05-10T01:35:19;3.72;;;1.30;;
62848;SDS011;48941;49.516;8.286;2023-05-10T01:37:56;1.48;;;1.10;;
62848;SDS011;48941;49.516;8.286;2023-05-10T01:40:32;1.13;;;1.13;;
62848;SDS011;48941;49.516;8.286;2023-05-10T01:43:08;1.30;;;1.20;;
62848;SDS011;48941;49.516;8.286;2023-05-10T01:45:46;1.30;;;1.30;;
62848;SDS011;48941;49.516;8.286;2023-05-10T01:48:19;4.20;;;1.40;;
62848;SDS011;48941;49.516;8.286;2023-05-10T01:50:48;3.75;;;1.17;;
62848;SDS011;48941;49.516;8.286;2023-05-10T01:53:19;2.33;;;1.40;;
62848;SDS011;48941;49.516;8.286;2023-05-10T01:55:49;1.25;;;1.15;;
62848;SDS011;48941;49.516;8.286;2023-05-10T01:58:21;1.15;;;1.15;;
62848;SDS011;48941;49.516;8.286;2023-05-10T02:00:52;2.80;;;1.30;;
62848;SDS011;48941;49.516;8.286;2023-05-10T02:03:23;1.55;;;1.45;;
62848;SDS011;48941;49.516;8.286;2023-05-10T02:05:53;2.58;;;1.35;;
62848;SDS011;48941;49.516;8.286;2023-05-10T02:08:23;1.65;;;1.42;;
62848;SDS011;48941;49.516;8.286;2023-05-10T02:10:52;2.67;;;2.13;;
62848;SDS011;48941;49.516;8.286;2023-05-10T02:13:23;2.78;;;1.35;;
62848;SDS011;48941;49.516;8.286;2023-05-10T02:15:52;4.07;;;2.22;;
62848;SDS011;48941;49.516;8.286;2023-05-10T02:18:23;1.30;;;1.30;;
62848;SDS011;48941;49.516;8.286;2023-05-10T02:20:54;4.45;;;1.63;;
62848;SDS011;48941;49.516;8.286;2023-05-10T02:23:23;1.40;;;1.30;;
62848;SDS011;48941;49.516;8.286;2023-05-10T02:25:53;2.20;;;1.40;;
62848;SDS011;48941;49.516;8.286;2023-05-10T02:28:23;2.40;;;1.40;;
62848;SDS011;48941;49.516;8.286;2023-05-10T02:30:53;1.90;;;1.55;;
62848;SDS011;48941;49.516;8.286;2023-05-10T02:33:24;1.50;;;1.40;;
62848;SDS011;48941;49.516;8.286;2023-05-10T02:35:53;3.85;;;1.60;;
62848;SDS011;48941;49.516;8.286;2023-05-10T02:38:21;1.60;;;1.50;;
62848;SDS011;48941;49.516;8.286;2023-05-10T02:40:51;1.95;;;1.60;;
62848;SDS011;48941;49.516;8.286;2023-05-10T02:43:21;7.25;;;1.65;;
62848;SDS011;48941;49.516;8.286;2023-05-10T02:45:50;1.77;;;1.67;;
62848;SDS011;48941;49.516;8.286;2023-05-10T02:48:18;2.70;;;1.92;;
62848;SDS011;48941;49.516;8.286;2023-05-10T02:50:47;1.58;;;1.50;;
62848;SDS011;48941;49.516;8.286;2023-05-10T02:53:18;2.03;;;1.60;;
62848;SDS011;48941;49.516;8.286;2023-05-10T02:55:50;1.73;;;1.63;;
62848;SDS011;48941;49.516;8.286;2023-05-10T02:58:22;1.85;;;1.73;;
62848;SDS011;48941;49.516;8.286;2023-05-10T03:00:49;2.10;;;1.50;;
62848;SDS011;48941;49.516;8.286;2023-05-10T03:03:17;2.22;;;1.70;;
62848;SDS011;48941;49.516;8.286;2023-05-10T03:05:48;1.80;;;1.67;;
62848;SDS011;48941;49.516;8.286;2023-05-10T03:08:16;2.55;;;1.60;;
62848;SDS011;48941;49.516;8.286;2023-05-10T03:10:47;3.50;;;1.73;;
62848;SDS011;48941;49.516;8.286;2023-05-10T03:13:25;2.15;;;1.83;;
62848;SDS011;48941;49.516;8.286;2023-05-10T03:16:04;1.67;;;1.50;;
62848;SDS011;48941;49.516;8.286;2023-05-10T03:18:37;2.78;;;1.75;;
62848;SDS011;48941;49.516;8.286;2023-05-10T03:21:12;1.83;;;1.73;;
62848;SDS011;48941;49.516;8.286;2023-05-10T03:23:43;3.45;;;1.70;;
62848;SDS011;48941;49.516;8.286;2023-05-10T03:26:17;1.85;;;1.75;;
62848;SDS011;48941;49.516;8.286;2023-05-10T03:28:48;4.65;;;1.83;;
62848;SDS011;48941;49.516;8.286;2023-05-10T03:31:17;1.65;;;1.55;;
62848;SDS011;48941;49.516;8.286;2023-05-10T03:33:45;4.18;;;1.88;;
62848;SDS011;48941;49.516;8.286;2023-05-10T03:36:16;2.70;;;1.90;;
62848;SDS011;48941;49.516;8.286;2023-05-10T03:38:44;1.90;;;1.80;;
62848;SDS011;48941;49.516;8.286;2023-05-10T03:41:11;3.17;;;2.00;;
62848;SDS011;48941;49.516;8.286;2023-05-10T03:43:40;1.92;;;1.77;;
62848;SDS011;48941;49.516;8.286;2023-05-10T03:46:08;5.38;;;2.17;;
62848;SDS011;48941;49.516;8.286;2023-05-10T03:48:35;2.03;;;1.80;;
62848;SDS011;48941;49.516;8.286;2023-05-10T03:51:03;3.85;;;2.08;;
62848;SDS011;48941;49.516;8.286;2023-05-10T03:53:32;3.00;;;1.88;;
62848;SDS011;48941;49.516;8.286;2023-05-10T03:56:00;4.10;;;2.13;;
62848;SDS011;48941;49.516;8.286;2023-05-10T03:58:28;1.85;;;1.67;;
62848;SDS011;48941;49.516;8.286;2023-05-10T04:00:55;2.67;;;2.08;;
62848;SDS011;48941;49.516;8.286;2023-05-10T04:03:23;4.60;;;2.13;;
62848;SDS011;48941;49.516;8.286;2023-05-10T04:05:58;3.03;;;1.98;;
62848;SDS011;48941;49.516;8.286;2023-05-10T04:08:27;2.40;;;1.90;;
62848;SDS011;48941;49.516;8.286;2023-05-10T04:11:05;4.65;;;1.98;;
62848;SDS011;48941;49.516;8.286;2023-05-10T04:13:34;3.42;;;2.67;;
62848;SDS011;48941;49.516;8.286;2023-05-10T04:16:01;4.05;;;3.65;;
62848;SDS011;48941;49.516;8.286;2023-05-10T04:18:29;3.03;;;2.60;;
62848;SDS011;48941;49.516;8.286;2023-05-10T04:20:58;4.18;;;2.40;;
62848;SDS011;48941;49.516;8.286;2023-05-10T04:23:26;2.75;;;2.30;;
62848;SDS011;48941;49.516;8.286;2023-05-10T04:25:58;2.50;;;2.30;;
62848;SDS011;48941;49.516;8.286;2023-05-10T04:28:28;2.22;;;2.13;;
62848;SDS011;48941;49.516;8.286;2023-05-10T04:31:00;3.00;;;2.80;;
62848;SDS011;48941;49.516;8.286;2023-05-10T04:33:28;5.03;;;2.50;;
62848;SDS011;48941;49.516;8.286;2023-05-10T04:35:56;3.60;;;3.30;;
62848;SDS011;48941;49.516;8.286;2023-05-10T04:38:24;6.05;;;3.72;;
62848;SDS011;48941;49.516;8.286;2023-05-10T04:40:53;4.45;;;3.67;;
62848;SDS011;48941;49.516;8.286;2023-05-10T04:43:21;11.70;;;3.45;;
62848;SDS011;48941;49.516;8.286;2023-05-10T04:45:50;4.15;;;2.90;;
62848;SDS011;48941;49.516;8.286;2023-05-10T04:48:18;3.60;;;2.90;;
62848;SDS011;48941;49.516;8.286;2023-05-10T04:50:45;5.43;;;3.20;;
62848;SDS011;48941;49.516;8.286;2023-05-10T04:53:13;4.60;;;3.55;;
62848;SDS011;48941;49.516;8.286;2023-05-10T04:55:42;3.78;;;3.20;;
62848;SDS011;48941;49.516;8.286;2023-05-10T04:58:10;10.13;;;3.30;;
62848;SDS011;48941;49.516;8.286;2023-05-10T05:00:38;2.90;;;2.70;;
62848;SDS011;48941;49.516;8.286;2023-05-10T05:03:07;3.38;;;3.08;;
62848;SDS011;48941;49.516;8.286;2023-05-10T05:05:36;4.00;;;3.60;;
62848;SDS011;48941;49.516;8.286;2023-05-10T05:08:05;4.70;;;3.28;;
62848;SDS011;48941;49.516;8.286;2023-05-10T05:10:33;4.85;;;3.33;;
62848;SDS011;48941;49.516;8.286;2023-05-10T05:13:01;5.35;;;3.20;;
62848;SDS011;48941;49.516;8.286;2023-05-10T05:15:29;4.85;;;3.40;;
62848;SDS011;48941;49.516;8.286;2023-05-10T05:17:57;4.25;;;3.10;;
62848;SDS011;48941;49.516;8.286;2023-05-10T05:20:26;4.25;;;3.00;;
62848;SDS011;48941;49.516;8.286;2023-05-10T05:22:54;7.32;;;3.20;;
62848;SDS011;48941;49.516;8.286;2023-05-10T05:25:22;4.20;;;3.05;;
62848;SDS011;48941;49.516;8.286;2023-05-10T05:27:50;5.28;;;2.95;;
62848;SDS011;48941;49.516;8.286;2023-05-10T05:30:17;3.53;;;2.67;;
62848;SDS011;48941;49.516;8.286;2023-05-10T05:32:45;2.83;;;2.60;;
62848;SDS011;48941;49.516;8.286;2023-05-10T05:35:13;3.67;;;2.10;;
62848;SDS011;48941;49.516;8.286;2023-05-10T05:37:43;4.70;;;2.45;;
62848;SDS011;48941;49.516;8.286;2023-05-10T05:40:12;4.57;;;2.60;;
62848;SDS011;48941;49.516;8.286;2023-05-10T05:42:40;6.07;;;2.42;;
62848;SDS011;48941;49.516;8.286;2023-05-10T05:45:08;2.50;;;2.20;;
62848;SDS011;48941;49.516;8.286;2023-05-10T05:47:39;2.42;;;2.22;;
62848;SDS011;48941;49.516;8.286;2023-05-10T05:50:07;4.53;;;3.10;;
62848;SDS011;48941;49.516;8.286;2023-05-10T05:52:36;3.05;;;2.13;;
62848;SDS011;48941;49.516;8.286;2023-05-10T05:55:06;3.65;;;2.30;;
62848;SDS011;48941;49.516;8.286;2023-05-10T05:57:34;3.50;;;2.10;;
62848;SDS011;48941;49.516;8.286;2023-05-10T06:00:02;4.38;;;2.45;;
62848;SDS011;48941;49.516;8.286;2023-05-10T06:02:31;2.67;;;2.30;;
62848;SDS011;48941;49.516;8.286;2023-05-10T06:04:59;2.60;;;2.28;;
62848;SDS011;48941;49.516;8.286;2023-05-10T06:07:27;2.35;;;2.00;;
62848;SDS011;48941;49.516;8.286;2023-05-10T06:09:55;4.80;;;2.20;;
62848;SDS011;48941;49.516;8.286;2023-05-10T06:12:25;2.78;;;2.10;;
62848;SDS011;48941;49.516;8.286;2023-05-10T06:14:52;2.53;;;2.00;;
62848;SDS011;48941;49.516;8.286;2023-05-10T06:17:20;2.47;;;1.90;;
62848;SDS011;48941;49.516;8.286;2023-05-10T06:19:48;3.60;;;2.20;;
62848;SDS011;48941;49.516;8.286;2023-05-10T06:22:16;5.60;;;2.08;;
62848;SDS011;48941;49.516;8.286;2023-05-10T06:24:44;2.13;;;1.88;;
62848;SDS011;48941;49.516;8.286;2023-05-10T06:27:11;2.50;;;2.10;;
62848;SDS011;48941;49.516;8.286;2023-05-10T06:29:40;1.90;;;1.80;;
62848;SDS011;48941;49.516;8.286;2023-05-10T06:32:09;3.13;;;1.77;;
62848;SDS011;48941;49.516;8.286;2023-05-10T06:34:37;1.92;;;1.70;;
62848;SDS011;48941;49.516;8.286;2023-05-10T06:37:04;2.00;;;1.88;;
62848;SDS011;48941;49.516;8.286;2023-05-10T06:39:32;1.70;;;1.60;;
62848;SDS011;48941;49.516;8.286;2023-05-10T06:42:00;2.38;;;1.70;;
62848;SDS011;48941;49.516;8.286;2023-05-10T06:44:30;1.73;;;1.63;;
62848;SDS011;48941;49.516;8.286;2023-05-10T06:46:59;2.10;;;1.80;;
62848;SDS011;48941;49.516;8.286;2023-05-10T06:49:27;2.00;;;1.55;;
62848;SDS011;48941;49.516;8.286;2023-05-10T06:51:55;5.60;;;1.73;;
62848;SDS011;48941;49.516;8.286;2023-05-10T06:54:23;6.60;;;1.83;;
62848;SDS011;48941;49.516;8.286;2023-05-10T06:56:51;3.25;;;1.80;;
62848;SDS011;48941;49.516;8.286;2023-05-10T06:59:20;1.60;;;1.50;;
62848;SDS011;48941;49.516;8.286;2023-05-10T07:01:48;1.48;;;1.38;;
62848;SDS011;48941;49.516;8.286;2023-05-10T07:04:17;1.50;;;1.40;;
62848;SDS011;48941;49.516;8.286;2023-05-10T07:06:45;2.13;;;1.50;;
62848;SDS011;48941;49.516;8.286;2023-05-10T07:09:13;1.45;;;1.35;;
62848;SDS011;48941;49.516;8.286;2023-05-10T07:11:41;3.17;;;1.70;;
62848;SDS011;48941;49.516;8.286;2023-05-10T07:14:09;8.15;;;1.88;;
62848;SDS011;48941;49.516;8.286;2023-05-10T07:16:39;1.98;;;1.75;;
62848;SDS011;48941;49.516;8.286;2023-05-10T07:19:07;2.20;;;1.90;;
62848;SDS011;48941;49.516;8.286;2023-05-10T07:21:36;4.03;;;2.08;;
62848;SDS011;48941;49.516;8.286;2023-05-10T07:24:06;4.45;;;2.20;;
62848;SDS011;48941;49.516;8.286;2023-05-10T07:26:34;2.70;;;1.80;;
62848;SDS011;48941;49.516;8.286;2023-05-10T07:29:02;3.00;;;1.70;;
62848;SDS011;48941;49.516;8.286;2023-05-10T07:31:30;1.80;;;1.60;;
62848;SDS011;48941;49.516;8.286;2023-05-10T07:33:58;2.00;;;1.90;;
62848;SDS011;48941;49.516;8.286;2023-05-10T07:36:26;5.00;;;1.73;;
62848;SDS011;48941;49.516;8.286;2023-05-10T07:38:55;2.70;;;1.90;;
62848;SDS011;48941;49.516;8.286;2023-05-10T07:41:24;2.83;;;1.80;;
62848;SDS011;48941;49.516;8.286;2023-05-10T07:43:52;2.58;;;1.75;;
62848;SDS011;48941;49.516;8.286;2023-05-10T07:46:19;1.83;;;1.50;;
62848;SDS011;48941;49.516;8.286;2023-05-10T07:48:47;6.93;;;1.80;;
62848;SDS011;48941;49.516;8.286;2023-05-10T07:51:15;5.53;;;1.80;;
62848;SDS011;48941;49.516;8.286;2023-05-10T07:53:43;2.22;;;1.60;;
62848;SDS011;48941;49.516;8.286;2023-05-10T07:56:22;3.78;;;1.80;;
62848;SDS011;48941;49.516;8.286;2023-05-10T07:58:53;1.43;;;1.30;;
62848;SDS011;48941;49.516;8.286;2023-05-10T08:01:21;2.15;;;1.60;;
62848;SDS011;48941;49.516;8.286;2023-05-10T08:03:49;1.50;;;1.40;;
62848;SDS011;48941;49.516;8.286;2023-05-10T08:06:20;3.88;;;1.50;;
62848;SDS011;48941;49.516;8.286;2023-05-10T08:08:48;2.90;;;1.40;;
62848;SDS011;48941;49.516;8.286;2023-05-10T08:11:17;3.47;;;1.55;;
62848;SDS011;48941;49.516;8.286;2023-05-10T08:13:46;1.70;;;1.60;;
62848;SDS011;48941;49.516;8.286;2023-05-10T08:16:15;2.72;;;1.48;;
62848;SDS011;48941;49.516;8.286;2023-05-10T08:18:44;3.53;;;2.10;;
62848;SDS011;48941;49.516;8.286;2023-05-10T08:21:13;1.70;;;1.42;;
62848;SDS011;48941;49.516;8.286;2023-05-10T08:23:41;1.95;;;1.45;;
62848;SDS011;48941;49.516;8.286;2023-05-10T08:26:10;1.63;;;1.50;;
62848;SDS011;48941;49.516;8.286;2023-05-10T08:28:38;2.95;;;1.50;;
62848;SDS011;48941;49.516;8.286;2023-05-10T08:31:07;2.35;;;1.70;;
62848;SDS011;48941;49.516;8.286;2023-05-10T08:33:35;1.38;;;1.30;;
62848;SDS011;48941;49.516;8.286;2023-05-10T08:36:03;2.58;;;1.60;;
62848;SDS011;48941;49.516;8.286;2023-05-10T08:38:31;3.88;;;1.67;;
62848;SDS011;48941;49.516;8.286;2023-05-10T08:41:00;2.83;;;1.85;;
62848;SDS011;48941;49.516;8.286;2023-05-10T08:43:29;3.80;;;1.70;;
62848;SDS011;48941;49.516;8.286;2023-05-10T08:45:59;1.75;;;1.65;;
62848;SDS011;48941;49.516;8.286;2023-05-10T08:48:30;3.97;;;1.75;;
62848;SDS011;48941;49.516;8.286;2023-05-10T08:51:01;1.70;;;1.60;;
62848;SDS011;48941;49.516;8.286;2023-05-10T08:53:31;2.90;;;1.70;;
62848;SDS011;48941;49.516;8.286;2023-05-10T08:56:01;2.83;;;1.80;;
62848;SDS011;48941;49.516;8.286;2023-05-10T08:58:30;3.55;;;1.70;;
62848;SDS011;48941;49.516;8.286;2023-05-10T09:00:58;1.80;;;1.70;;
62848;SDS011;48941;49.516;8.286;2023-05-10T09:03:27;2.25;;;1.73;;
62848;SDS011;48941;49.516;8.286;2023-05-10T09:05:56;4.72;;;1.80;;
62848;SDS011;48941;49.516;8.286;2023-05-10T09:08:24;2.38;;;1.63;;
62848;SDS011;48941;49.516;8.286;2023-05-10T09:10:53;2.10;;;1.67;;
62848;SDS011;48941;49.516;8.286;2023-05-10T09:13:22;2.25;;;1.50;;
62848;SDS011;48941;49.516;8.286;2023-05-10T09:15:52;2.72;;;1.60;;
62848;SDS011;48941;49.516;8.286;2023-05-10T09:18:20;2.15;;;1.60;;
62848;SDS011;48941;49.516;8.286;2023-05-10T09:20:49;2.80;;;1.52;;
62848;SDS011;48941;49.516;8.286;2023-05-10T09:23:18;1.33;;;1.23;;
62848;SDS011;48941;49.516;8.286;2023-05-10T09:25:46;2.40;;;1.50;;
62848;SDS011;48941;49.516;8.286;2023-05-10T09:28:14;3.92;;;1.88;;
62848;SDS011;48941;49.516;8.286;2023-05-10T09:30:42;2.20;;;1.50;;
62848;SDS011;48941;49.516;8.286;2023-05-10T09:33:10;2.53;;;1.50;;
62848;SDS011;48941;49.516;8.286;2023-05-10T09:35:38;3.35;;;1.40;;
62848;SDS011;48941;49.516;8.286;2023-05-10T09:38:06;1.42;;;1.33;;
62848;SDS011;48941;49.516;8.286;2023-05-10T09:40:36;1.60;;;1.50;;
62848;SDS011;48941;49.516;8.286;2023-05-10T09:43:05;1.48;;;1.38;;
62848;SDS011;48941;49.516;8.286;2023-05-10T09:45:35;2.70;;;1.45;;
62848;SDS011;48941;49.516;8.286;2023-05-10T09:48:04;1.58;;;1.30;;
62848;SDS011;48941;49.516;8.286;2023-05-10T09:50:33;3.28;;;1.80;;
62848;SDS011;48941;49.516;8.286;2023-05-10T09:53:02;3.78;;;1.75;;
62848;SDS011;48941;49.516;8.286;2023-05-10T09:55:39;5.47;;;1.98;;
62848;SDS011;48941;49.516;8.286;2023-05-10T09:58:10;1.98;;;1.77;;
62848;SDS011;48941;49.516;8.286;2023-05-10T10:00:39;1.70;;;1.50;;
62848;SDS011;48941;49.516;8.286;2023-05-10T10:03:11;2.85;;;1.70;;
62848;SDS011;48941;49.516;8.286;2023-05-10T10:05:41;1.77;;;1.67;;
62848;SDS011;48941;49.516;8.286;2023-05-10T10:08:09;1.63;;;1.52;;
62848;SDS011;48941;49.516;8.286;2023-05-10T10:10:39;2.72;;;1.75;;
62848;SDS011;48941;49.516;8.286;2023-05-10T10:13:07;1.70;;;1.60;;
62848;SDS011;48941;49.516;8.286;2023-05-10T10:15:35;2.85;;;1.80;;
62848;SDS011;48941;49.516;8.286;2023-05-10T10:18:04;3.92;;;1.60;;
62848;SDS011;48941;49.516;8.286;2023-05-10T10:20:33;5.90;;;2.05;;
62848;SDS011;48941;49.516;8.286;2023-05-10T10:23:01;2.05;;;1.73;;
62848;SDS011;48941;49.516;8.286;2023-05-10T10:25:29;3.28;;;1.70;;
62848;SDS011;48941;49.516;8.286;2023-05-10T10:28:02;2.20;;;1.50;;
62848;SDS011;48941;49.516;8.286;2023-05-10T10:30:41;1.88;;;1.58;;
62848;SDS011;48941;49.516;8.286;2023-05-10T10:33:24;1.55;;;1.45;;
62848;SDS011;48941;49.516;8.286;2023-05-10T10:36:02;1.90;;;1.50;;
62848;SDS011;48941;49.516;8.286;2023-05-10T10:38:37;4.97;;;1.58;;
62848;SDS011;48941;49.516;8.286;2023-05-10T10:41:27;1.33;;;1.23;;
62848;SDS011;48941;49.516;8.286;2023-05-10T10:52:32;2.30;;;1.50;;
62848;SDS011;48941;49.516;8.286;2023-05-10T10:55:03;1.75;;;1.30;;
62848;SDS011;48941;49.516;8.286;2023-05-10T10:57:33;2.55;;;1.30;;
62848;SDS011;48941;49.516;8.286;2023-05-10T11:00:19;3.85;;;1.50;;
62848;SDS011;48941;49.516;8.286;2023-05-10T11:02:56;2.45;;;1.33;;
62848;SDS011;48941;49.516;8.286;2023-05-10T11:05:27;3.75;;;1.30;;
62848;SDS011;48941;49.516;8.286;2023-05-10T11:11:01;2.53;;;1.27;;
62848;SDS011;48941;49.516;8.286;2023-05-10T11:13:33;3.53;;;1.40;;
62848;SDS011;48941;49.516;8.286;2023-05-10T11:16:16;4.85;;;1.30;;
62848;SDS011;48941;49.516;8.286;2023-05-10T11:18:52;2.25;;;1.30;;
62848;SDS011;48941;49.516;8.286;2023-05-10T11:21:30;6.28;;;1.55;;
62848;SDS011;48941;49.516;8.286;2023-05-10T11:23:59;1.95;;;1.10;;
62848;SDS011;48941;49.516;8.286;2023-05-10T11:26:33;1.55;;;1.25;;
62848;SDS011;48941;49.516;8.286;2023-05-10T11:29:02;4.00;;;1.65;;
62848;SDS011;48941;49.516;8.286;2023-05-10T11:31:32;3.40;;;1.30;;
62848;SDS011;48941;49.516;8.286;2023-05-10T11:34:00;1.80;;;1.13;;
62848;SDS011;48941;49.516;8.286;2023-05-10T11:36:29;2.47;;;1.40;;
62848;SDS011;48941;49.516;8.286;2023-05-10T11:39:00;3.40;;;1.55;;
62848;SDS011;48941;49.516;8.286;2023-05-10T11:41:28;1.65;;;1.30;;
62848;SDS011;48941;49.516;8.286;2023-05-10T11:43:57;5.53;;;1.50;;
62848;SDS011;48941;49.516;8.286;2023-05-10T11:46:26;1.35;;;1.25;;
62848;SDS011;48941;49.516;8.286;2023-05-10T11:48:57;1.90;;;1.20;;
62848;SDS011;48941;49.516;8.286;2023-05-10T11:51:28;6.05;;;1.40;;
62848;SDS011;48941;49.516;8.286;2023-05-10T11:53:56;2.13;;;1.30;;
62848;SDS011;48941;49.516;8.286;2023-05-10T11:56:24;1.30;;;1.10;;
62848;SDS011;48941;49.516;8.286;2023-05-10T11:58:53;1.55;;;1.20;;
62848;SDS011;48941;49.516;8.286;2023-05-10T12:01:22;5.22;;;1.38;;
62848;SDS011;48941;49.516;8.286;2023-05-10T12:03:51;4.07;;;1.48;;
62848;SDS011;48941;49.516;8.286;2023-05-10T12:06:22;3.53;;;1.45;;
62848;SDS011;48941;49.516;8.286;2023-05-10T12:08:50;5.60;;;1.33;;
62848;SDS011;48941;49.516;8.286;2023-05-10T12:11:20;4.13;;;1.20;;
62848;SDS011;48941;49.516;8.286;2023-05-10T12:13:48;3.80;;;1.20;;
62848;SDS011;48941;49.516;8.286;2023-05-10T12:16:16;5.35;;;1.30;;
62848;SDS011;48941;49.516;8.286;2023-05-10T12:18:45;2.53;;;1.40;;
62848;SDS011;48941;49.516;8.286;2023-05-10T12:21:15;2.50;;;1.40;;
62848;SDS011;48941;49.516;8.286;2023-05-10T12:23:46;1.63;;;1.10;;
62848;SDS011;48941;49.516;8.286;2023-05-10T12:26:14;1.80;;;1.40;;
62848;SDS011;48941;49.516;8.286;2023-05-10T12:28:42;1.70;;;1.25;;
62848;SDS011;48941;49.516;8.286;2023-05-10T12:31:10;6.40;;;1.50;;
62848;SDS011;48941;49.516;8.286;2023-05-10T12:33:38;4.00;;;1.42;;
62848;SDS011;48941;49.516;8.286;2023-05-10T12:36:08;5.43;;;1.40;;
62848;SDS011;48941;49.516;8.286;2023-05-10T12:38:38;6.47;;;1.40;;
62848;SDS011;48941;49.516;8.286;2023-05-10T12:41:11;2.45;;;1.58;;
62848;SDS011;48941;49.516;8.286;2023-05-10T12:43:40;4.35;;;1.25;;
62848;SDS011;48941;49.516;8.286;2023-05-10T12:46:09;3.58;;;1.30;;
62848;SDS011;48941;49.516;8.286;2023-05-10T12:48:38;4.47;;;1.77;;
62848;SDS011;48941;49.516;8.286;2023-05-10T12:51:07;3.63;;;1.30;;
62848;SDS011;48941;49.516;8.286;2023-05-10T12:53:35;1.60;;;1.20;;
62848;SDS011;48941;49.516;8.286;2023-05-10T12:56:04;1.73;;;1.27;;
62848;SDS011;48941;49.516;8.286;2023-05-10T12:58:33;1.33;;;1.20;;
62848;SDS011;48941;49.516;8.286;2023-05-10T13:01:01;2.22;;;1.30;;
62848;SDS011;48941;49.516;8.286;2023-05-10T13:03:31;2.78;;;1.20;;
62848;SDS011;48941;49.516;8.286;2023-05-10T13:05:58;5.47;;;2.70;;
62848;SDS011;48941;49.516;8.286;2023-05-10T13:08:26;2.38;;;1.45;;
62848;SDS011;48941;49.516;8.286;2023-05-10T13:10:59;2.50;;;1.10;;
62848;SDS011;48941;49.516;8.286;2023-05-10T13:13:27;5.68;;;1.38;;
62848;SDS011;48941;49.516;8.286;2023-05-10T13:15:56;1.10;;;0.98;;
62848;SDS011;48941;49.516;8.286;2023-05-10T13:18:24;2.83;;;1.17;;
62848;SDS011;48941;49.516;8.286;2023-05-10T13:23:22;2.67;;;1.05;;
62848;SDS011;48941;49.516;8.286;2023-05-10T13:25:50;2.10;;;0.98;;
62848;SDS011;48941;49.516;8.286;2023-05-10T13:28:18;4.07;;;1.20;;
62848;SDS011;48941;49.516;8.286;2023-05-10T13:30:46;3.85;;;1.25;;
62848;SDS011;48941;49.516;8.286;2023-05-10T13:33:15;3.90;;;1.63;;
62848;SDS011;48941;49.516;8.286;2023-05-10T13:35:43;1.35;;;1.10;;
62848;SDS011;48941;49.516;8.286;2023-05-10T13:38:11;1.15;;;1.10;;
62848;SDS011;48941;49.516;8.286;2023-05-10T13:40:40;1.25;;;1.10;;
62848;SDS011;48941;49.516;8.286;2023-05-10T13:43:07;2.38;;;1.23;;
62848;SDS011;48941;49.516;8.286;2023-05-10T13:45:35;2.00;;;1.10;;
62848;SDS011;48941;49.516;8.286;2023-05-10T13:48:03;1.40;;;0.98;;
62848;SDS011;48941;49.516;8.286;2023-05-10T13:50:33;1.15;;;0.93;;
62848;SDS011;48941;49.516;8.286;2023-05-10T13:53:01;1.38;;;1.10;;
62848;SDS011;48941;49.516;8.286;2023-05-10T13:55:29;1.20;;;0.90;;
62848;SDS011;48941;49.516;8.286;2023-05-10T13:57:56;1.25;;;0.85;;
62848;SDS011;48941;49.516;8.286;2023-05-10T14:00:24;1.20;;;1.10;;
62848;SDS011;48941;49.516;8.286;2023-05-10T14:02:52;1.83;;;1.10;;
62848;SDS011;48941;49.516;8.286;2023-05-10T14:05:21;1.35;;;1.20;;
62848;SDS011;48941;49.516;8.286;2023-05-10T14:07:53;0.85;;;0.85;;
62848;SDS011;48941;49.516;8.286;2023-05-10T14:10:21;1.25;;;1.05;;
62848;SDS011;48941;49.516;8.286;2023-05-10T14:12:49;0.90;;;0.90;;
62848;SDS011;48941;49.516;8.286;2023-05-10T14:15:17;3.83;;;1.20;;
62848;SDS011;48941;49.516;8.286;2023-05-10T14:17:45;3.72;;;1.15;;
62848;SDS011;48941;49.516;8.286;2023-05-10T14:20:13;2.20;;;1.73;;
62848;SDS011;48941;49.516;8.286;2023-05-10T14:22:41;1.35;;;1.25;;
62848;SDS011;48941;49.516;8.286;2023-05-10T14:25:10;1.10;;;1.00;;
62848;SDS011;48941;49.516;8.286;2023-05-10T14:27:38;1.55;;;1.20;;
62848;SDS011;48941;49.516;8.286;2023-05-10T14:30:06;3.90;;;1.30;;
62848;SDS011;48941;49.516;8.286;2023-05-10T14:32:35;3.40;;;1.38;;
62848;SDS011;48941;49.516;8.286;2023-05-10T14:35:04;1.85;;;1.10;;
62848;SDS011;48941;49.516;8.286;2023-05-10T14:37:35;1.95;;;1.13;;
62848;SDS011;48941;49.516;8.286;2023-05-10T14:40:04;8.75;;;1.38;;
62848;SDS011;48941;49.516;8.286;2023-05-10T14:42:34;1.80;;;0.88;;
62848;SDS011;48941;49.516;8.286;2023-05-10T14:45:02;2.15;;;1.15;;
62848;SDS011;48941;49.516;8.286;2023-05-10T14:47:30;3.00;;;1.13;;
62848;SDS011;48941;49.516;8.286;2023-05-10T14:49:58;1.05;;;0.90;;
62848;SDS011;48941;49.516;8.286;2023-05-10T14:52:26;3.95;;;1.17;;
62848;SDS011;48941;49.516;8.286;2023-05-10T14:54:54;4.07;;;1.15;;
62848;SDS011;48941;49.516;8.286;2023-05-10T14:57:22;2.70;;;1.00;;
62848;SDS011;48941;49.516;8.286;2023-05-10T14:59:51;1.33;;;1.10;;
62848;SDS011;48941;49.516;8.286;2023-05-10T15:02:19;22.75;;;2.25;;
62848;SDS011;48941;49.516;8.286;2023-05-10T15:04:48;2.38;;;1.20;;
62848;SDS011;48941;49.516;8.286;2023-05-10T15:07:16;3.10;;;0.90;;
62848;SDS011;48941;49.516;8.286;2023-05-10T15:09:44;5.85;;;1.35;;
62848;SDS011;48941;49.516;8.286;2023-05-10T15:12:12;0.95;;;0.90;;
62848;SDS011;48941;49.516;8.286;2023-05-10T15:14:40;5.28;;;1.08;;
62848;SDS011;48941;49.516;8.286;2023-05-10T15:17:09;2.47;;;0.90;;
62848;SDS011;48941;49.516;8.286;2023-05-10T15:19:37;2.58;;;0.70;;